Time;durP1;ratioP1;P1;durP2;ratioP2;P2;SDS_P1;SDS_P2;PMS_P1;PMS_P2;Temp;Humidity;BMP_temperature;BMP_pressure;BME280_temperature;BME280_humidity;BME280_pressure;Samples;Min_cycle;Max_cycle;Signal;HPM_P1;HPM_P2
2023/06/11 00:00:22;;;;;;;;;;;19.40;99.90;;;;;;5064516;28;19921;-71
2023/06/11 00:02:53;;;;;;;;;;;19.40;99.90;;;;;;5064419;28;19928;-71
2023/06/11 00:05:22;;;;;;;;;;;19.40;99.90;;;;;;5064132;28;19925;-70
2023/06/11 00:07:49;;;;;;;;;;;19.30;99.90;;;;;;5064403;28;19999;-69
2023/06/11 00:10:16;;;;;;;;;;;19.30;99.90;;;;;;5064484;28;19928;-69
2023/06/11 00:12:43;;;;;;;;;;;19.30;99.90;;;;;;5063802;28;19921;-70
2023/06/11 00:15:10;;;;;;;;;;;19.30;99.90;;;;;;5064111;28;19921;-69
2023/06/11 00:17:36;;;;;;;;;;;19.20;99.90;;;;;;5064441;28;19991;-69
2023/06/11 00:20:09;;;;;;;;;;;19.10;99.90;;;;;;5063908;28;20264;-70
2023/06/11 00:22:37;;;;;;;;;;;19.10;99.90;;;;;;5063955;28;19956;-70
2023/06/11 00:25:04;;;;;;;;;;;19.00;99.90;;;;;;5063650;28;19921;-69
2023/06/11 00:27:31;;;;;;;;;;;19.00;99.90;;;;;;5064269;28;19975;-69
2023/06/11 00:29:57;;;;;;;;;;;19.00;99.90;;;;;;5063812;28;20286;-69
2023/06/11 00:32:24;;;;;;;;;;;18.90;99.90;;;;;;5063983;28;19959;-70
2023/06/11 00:34:51;;;;;;;;;;;18.90;99.90;;;;;;5064427;28;19920;-70
2023/06/11 00:37:17;;;;;;;;;;;18.80;99.90;;;;;;5063936;28;19921;-69
2023/06/11 00:39:45;;;;;;;;;;;18.80;99.90;;;;;;5064166;28;20191;-75
2023/06/11 00:42:12;;;;;;;;;;;18.80;99.90;;;;;;5063904;28;19920;-69
2023/06/11 00:44:39;;;;;;;;;;;18.70;99.90;;;;;;5064155;28;19925;-70
2023/06/11 00:47:12;;;;;;;;;;;18.70;99.90;;;;;;5063377;28;19983;-70
2023/06/11 00:49:38;;;;;;;;;;;18.70;99.90;;;;;;5064062;28;19921;-69
2023/06/11 00:52:09;;;;;;;;;;;18.60;99.90;;;;;;5063880;28;19984;-70
2023/06/11 00:54:36;;;;;;;;;;;18.60;99.90;;;;;;5063644;28;19985;-70
2023/06/11 00:57:06;;;;;;;;;;;18.50;99.90;;;;;;5045517;28;19920;-71
2023/06/11 00:59:34;;;;;;;;;;;18.50;99.90;;;;;;5058108;28;20112;-71
2023/06/11 01:02:06;;;;;;;;;;;18.40;99.90;;;;;;5063738;28;19962;-70
2023/06/11 01:04:35;;;;;;;;;;;18.40;99.90;;;;;;5063689;28;19921;-70
2023/06/11 01:07:05;;;;;;;;;;;18.30;99.90;;;;;;5062900;28;19954;-71
2023/06/11 01:09:32;;;;;;;;;;;18.30;99.90;;;;;;5063687;28;19983;-70
2023/06/11 01:12:02;;;;;;;;;;;18.30;99.90;;;;;;5063315;28;20216;-69
2023/06/11 01:14:32;;;;;;;;;;;18.30;99.90;;;;;;5063875;28;19921;-69
2023/06/11 01:17:04;;;;;;;;;;;18.20;99.90;;;;;;5063812;28;19920;-69
2023/06/11 01:19:47;;;;;;;;;;;18.10;99.90;;;;;;5063637;28;19928;-69
2023/06/11 01:22:29;;;;;;;;;;;18.10;99.90;;;;;;5063372;28;19956;-69
2023/06/11 01:25:17;;;;;;;;;;;18.10;99.90;;;;;;5063293;28;19952;-69
2023/06/11 01:28:02;;;;;;;;;;;18.00;99.90;;;;;;5063511;28;20216;-70
2023/06/11 01:30:30;;;;;;;;;;;18.00;99.90;;;;;;5063625;28;19921;-69
2023/06/11 01:32:57;;;;;;;;;;;18.00;99.90;;;;;;5063303;28;19963;-69
2023/06/11 01:35:25;;;;;;;;;;;17.90;99.90;;;;;;5063290;28;20226;-70
2023/06/11 01:37:56;;;;;;;;;;;17.90;99.90;;;;;;5063441;28;19928;-70
2023/06/11 01:40:23;;;;;;;;;;;17.90;99.90;;;;;;5063319;28;19921;-70
2023/06/11 01:42:49;;;;;;;;;;;17.80;99.90;;;;;;5062759;28;19943;-70
2023/06/11 01:45:18;;;;;;;;;;;17.80;99.90;;;;;;5063244;28;19991;-69
2023/06/11 01:47:45;;;;;;;;;;;17.70;99.90;;;;;;5063296;28;19921;-70
2023/06/11 01:50:12;;;;;;;;;;;17.70;99.90;;;;;;5063381;28;19927;-69
2023/06/11 01:52:39;;;;;;;;;;;17.70;99.90;;;;;;5062913;28;19983;-69
2023/06/11 01:55:07;;;;;;;;;;;17.60;99.90;;;;;;5063260;28;19921;-70
2023/06/11 01:57:33;;;;;;;;;;;17.60;99.90;;;;;;5063110;28;20208;-69
2023/06/11 02:00:00;;;;;;;;;;;17.60;99.90;;;;;;5062851;28;19927;-69
2023/06/11 02:02:28;;;;;;;;;;;17.60;99.90;;;;;;5062985;28;20054;-69
2023/06/11 02:04:55;;;;;;;;;;;17.50;99.90;;;;;;5063031;28;19921;-70
2023/06/11 02:07:22;;;;;;;;;;;17.50;99.90;;;;;;5062749;28;19970;-70
2023/06/11 02:09:49;;;;;;;;;;;17.50;99.90;;;;;;5062871;28;19985;-70
2023/06/11 02:12:16;;;;;;;;;;;17.50;99.90;;;;;;5062053;28;19971;-69
2023/06/11 02:14:42;;;;;;;;;;;17.50;99.90;;;;;;5063090;28;19980;-69
2023/06/11 02:17:09;;;;;;;;;;;17.40;99.90;;;;;;5062712;28;19983;-69
2023/06/11 02:19:37;;;;;;;;;;;17.30;99.90;;;;;;5065735;28;19921;-70
2023/06/11 02:22:04;;;;;;;;;;;17.30;99.90;;;;;;5066308;28;19927;-70
2023/06/11 02:24:31;;;;;;;;;;;17.20;99.90;;;;;;5066190;28;20326;-69
2023/06/11 02:26:57;;;;;;;;;;;17.20;99.90;;;;;;5066255;28;19985;-70
2023/06/11 02:29:24;;;;;;;;;;;17.20;99.90;;;;;;5066380;28;19988;-70
2023/06/11 02:31:51;;;;;;;;;;;17.10;99.90;;;;;;5066336;28;20171;-69
2023/06/11 02:34:17;;;;;;;;;;;17.10;99.90;;;;;;5066013;28;19959;-70
2023/06/11 02:36:46;;;;;;;;;;;17.00;99.90;;;;;;5066072;28;19920;-70
2023/06/11 02:39:13;;;;;;;;;;;17.00;99.90;;;;;;5066389;28;19991;-70
2023/06/11 02:41:39;;;;;;;;;;;16.90;99.90;;;;;;5066077;28;19983;-69
2023/06/11 02:44:06;;;;;;;;;;;16.90;99.90;;;;;;5066298;28;19999;-70
2023/06/11 02:46:33;;;;;;;;;;;16.80;99.90;;;;;;5065710;28;20224;-70
2023/06/11 02:48:59;;;;;;;;;;;16.80;99.90;;;;;;5065845;28;19920;-69
2023/06/11 02:51:26;;;;;;;;;;;16.80;99.90;;;;;;5065645;28;19927;-69
2023/06/11 02:53:54;;;;;;;;;;;16.70;99.90;;;;;;5065761;28;19987;-69
2023/06/11 02:56:20;;;;;;;;;;;16.80;99.90;;;;;;5065985;28;19921;-70
2023/06/11 02:58:47;;;;;;;;;;;16.70;99.90;;;;;;5065861;28;19948;-70
2023/06/11 03:01:13;;;;;;;;;;;16.70;99.90;;;;;;5065587;28;19991;-69
2023/06/11 03:03:40;;;;;;;;;;;16.70;99.90;;;;;;5065489;28;19927;-69
2023/06/11 03:06:07;;;;;;;;;;;16.60;99.90;;;;;;5065827;28;19988;-70
2023/06/11 03:08:33;;;;;;;;;;;16.60;99.90;;;;;;5065964;28;19948;-72
2023/06/11 03:11:01;;;;;;;;;;;16.60;99.90;;;;;;5065355;28;19984;-69
2023/06/11 03:13:28;;;;;;;;;;;16.50;99.90;;;;;;5065350;28;19920;-69
2023/06/11 03:15:55;;;;;;;;;;;16.50;99.90;;;;;;5065303;28;19943;-69
2023/06/11 03:18:22;;;;;;;;;;;16.50;99.90;;;;;;5065732;28;19928;-70
2023/06/11 03:20:48;;;;;;;;;;;16.40;99.90;;;;;;5065484;28;19927;-70
2023/06/11 03:23:15;;;;;;;;;;;16.40;99.90;;;;;;5065284;28;19984;-69
2023/06/11 03:25:42;;;;;;;;;;;16.40;99.90;;;;;;5065247;28;19987;-70
2023/06/11 03:28:10;;;;;;;;;;;16.40;99.90;;;;;;5065313;28;19942;-69
2023/06/11 03:30:37;;;;;;;;;;;16.30;99.90;;;;;;5064002;28;20171;-70
2023/06/11 03:33:03;;;;;;;;;;;16.30;99.90;;;;;;5064748;28;19948;-69
2023/06/11 03:35:30;;;;;;;;;;;16.30;99.90;;;;;;5065001;28;19921;-71
2023/06/11 03:37:58;;;;;;;;;;;16.30;99.90;;;;;;5065110;28;19998;-70
2023/06/11 03:40:24;;;;;;;;;;;16.30;99.90;;;;;;5065058;28;19983;-70
2023/06/11 03:42:51;;;;;;;;;;;16.30;99.90;;;;;;5064678;28;19921;-70
2023/06/11 03:45:19;;;;;;;;;;;16.40;99.90;;;;;;5065021;28;19927;-70
2023/06/11 03:47:55;;;;;;;;;;;16.40;99.90;;;;;;5064764;28;20125;-71
2023/06/11 03:50:22;;;;;;;;;;;16.40;99.90;;;;;;5064822;28;20143;-69
2023/06/11 03:52:49;;;;;;;;;;;16.40;99.90;;;;;;5064643;28;19921;-70
2023/06/11 03:55:15;;;;;;;;;;;16.30;99.90;;;;;;5064923;28;19921;-69
2023/06/11 03:57:45;;;;;;;;;;;16.30;99.90;;;;;;5063868;28;19959;-70
2023/06/11 04:00:12;;;;;;;;;;;16.40;99.90;;;;;;5061614;28;20172;-70
2023/06/11 04:02:40;;;;;;;;;;;16.40;99.90;;;;;;5048867;28;19983;-71
2023/06/11 04:05:07;;;;;;;;;;;16.40;99.90;;;;;;5064524;28;19952;-70
2023/06/11 04:07:35;;;;;;;;;;;16.40;99.90;;;;;;5064476;28;19920;-70
2023/06/11 04:10:02;;;;;;;;;;;16.40;99.90;;;;;;5062639;28;20280;-70
2023/06/11 04:12:28;;;;;;;;;;;16.40;99.90;;;;;;5063855;28;19987;-70
2023/06/11 04:14:55;;;;;;;;;;;16.30;99.90;;;;;;5064388;28;19947;-70
2023/06/11 04:17:22;;;;;;;;;;;16.40;99.90;;;;;;5064551;28;20166;-70
2023/06/11 04:19:50;;;;;;;;;;;16.40;99.90;;;;;;5064221;28;19959;-70
2023/06/11 04:22:16;;;;;;;;;;;16.40;99.90;;;;;;5063517;28;19921;-70
2023/06/11 04:24:43;;;;;;;;;;;16.50;99.90;;;;;;5058062;28;19921;-70
2023/06/11 04:27:11;;;;;;;;;;;16.50;99.90;;;;;;5044209;28;20104;-70
2023/06/11 04:29:37;;;;;;;;;;;16.50;99.90;;;;;;5044108;28;19928;-70
2023/06/11 04:32:04;;;;;;;;;;;16.50;99.90;;;;;;5044019;28;19960;-70
2023/06/11 04:34:33;;;;;;;;;;;16.60;99.90;;;;;;5064166;28;19959;-69
2023/06/11 04:37:01;;;;;;;;;;;16.70;99.90;;;;;;5063857;28;19983;-70
2023/06/11 04:39:28;;;;;;;;;;;16.70;99.90;;;;;;5064071;28;19988;-70
2023/06/11 04:41:55;;;;;;;;;;;16.70;99.90;;;;;;5063066;28;20087;-70
2023/06/11 04:44:22;;;;;;;;;;;16.80;99.90;;;;;;5063693;28;19948;-70
2023/06/11 04:46:48;;;;;;;;;;;16.80;99.90;;;;;;5063676;28;19952;-70
2023/06/11 04:49:20;;;;;;;;;;;16.90;99.90;;;;;;5063721;28;19993;-70
2023/06/11 04:51:48;;;;;;;;;;;17.00;99.90;;;;;;5062759;28;20286;-70
2023/06/11 04:54:17;;;;;;;;;;;17.00;99.90;;;;;;5063927;28;19921;-70
2023/06/11 04:56:43;;;;;;;;;;;17.10;99.90;;;;;;5063812;28;20116;-69
2023/06/11 04:59:10;;;;;;;;;;;17.10;99.90;;;;;;5063518;28;19927;-70
2023/06/11 05:01:44;;;;;;;;;;;17.20;99.90;;;;;;5063055;28;19953;-70
2023/06/11 05:04:11;;;;;;;;;;;17.30;99.90;;;;;;5063207;28;19989;-70
2023/06/11 05:06:37;;;;;;;;;;;17.30;99.90;;;;;;5043780;28;19965;-70
2023/06/11 05:09:06;;;;;;;;;;;17.40;99.90;;;;;;5055005;28;19984;-70
2023/06/11 05:11:34;;;;;;;;;;;17.40;99.90;;;;;;5062893;28;20006;-70
2023/06/11 05:14:00;;;;;;;;;;;17.50;99.90;;;;;;5063202;28;20276;-70
2023/06/11 05:16:27;;;;;;;;;;;17.50;99.90;;;;;;5063540;28;19952;-70
2023/06/11 05:18:54;;;;;;;;;;;17.60;99.90;;;;;;5063522;28;19928;-69
2023/06/11 05:21:20;;;;;;;;;;;17.70;99.90;;;;;;5062616;28;20161;-70
2023/06/11 05:23:47;;;;;;;;;;;17.70;99.90;;;;;;5063232;28;20227;-70
2023/06/11 05:26:14;;;;;;;;;;;17.80;99.90;;;;;;5063392;28;19956;-70
2023/06/11 05:28:42;;;;;;;;;;;17.90;99.90;;;;;;5063576;28;19963;-69
2023/06/11 05:31:11;;;;;;;;;;;18.00;99.90;;;;;;5062883;28;19939;-70
2023/06/11 05:33:37;;;;;;;;;;;18.10;99.90;;;;;;5063430;28;19927;-70
2023/06/11 05:36:04;;;;;;;;;;;18.20;99.90;;;;;;5063151;28;19980;-68
2023/06/11 05:38:31;;;;;;;;;;;18.40;99.90;;;;;;5063146;28;19984;-68
2023/06/11 05:40:58;;;;;;;;;;;18.50;99.90;;;;;;5062786;28;19921;-67
2023/06/11 05:43:24;;;;;;;;;;;18.60;99.90;;;;;;5062867;28;19959;-69
2023/06/11 05:45:52;;;;;;;;;;;18.70;99.90;;;;;;5062733;28;19956;-68
2023/06/11 05:48:19;;;;;;;;;;;18.80;99.90;;;;;;5062996;28;19991;-67
2023/06/11 05:50:45;;;;;;;;;;;18.80;99.90;;;;;;5062799;28;20158;-68
2023/06/11 05:53:13;;;;;;;;;;;18.90;99.90;;;;;;5063478;28;20224;-68
2023/06/11 05:55:40;;;;;;;;;;;19.00;99.90;;;;;;5066694;28;20085;-68
2023/06/11 05:58:07;;;;;;;;;;;19.10;99.90;;;;;;5066538;28;19960;-69
2023/06/11 06:00:33;;;;;;;;;;;19.20;99.90;;;;;;5066294;28;19928;-68
2023/06/11 06:03:03;;;;;;;;;;;19.30;99.90;;;;;;5065904;28;20137;-68
2023/06/11 06:05:30;;;;;;;;;;;19.30;99.90;;;;;;5066279;28;20231;-68
2023/06/11 06:07:57;;;;;;;;;;;19.40;99.90;;;;;;5063663;28;19995;-68
2023/06/11 06:10:23;;;;;;;;;;;19.40;99.90;;;;;;5066207;28;19921;-67
2023/06/11 06:12:50;;;;;;;;;;;19.50;99.90;;;;;;5065789;28;19948;-68
2023/06/11 06:15:17;;;;;;;;;;;19.60;99.90;;;;;;5066306;28;20247;-68
2023/06/11 06:17:43;;;;;;;;;;;19.60;99.90;;;;;;5066293;28;19927;-69
2023/06/11 06:20:12;;;;;;;;;;;19.70;99.90;;;;;;5066475;28;19987;-69
2023/06/11 06:22:39;;;;;;;;;;;19.70;99.90;;;;;;5065132;28;19927;-71
2023/06/11 06:25:06;;;;;;;;;;;19.80;99.90;;;;;;5066202;28;19947;-68
2023/06/11 06:27:33;;;;;;;;;;;19.90;99.90;;;;;;5065964;28;20176;-69
2023/06/11 06:30:01;;;;;;;;;;;20.00;99.90;;;;;;5065818;28;19959;-69
2023/06/11 06:32:28;;;;;;;;;;;20.00;99.90;;;;;;5065240;28;19991;-69
2023/06/11 06:34:54;;;;;;;;;;;20.00;99.90;;;;;;5065886;28;20224;-68
2023/06/11 06:37:27;;;;;;;;;;;20.10;99.90;;;;;;5065797;28;19951;-71
2023/06/11 06:39:54;;;;;;;;;;;20.20;99.90;;;;;;5065942;28;19927;-69
2023/06/11 06:42:20;;;;;;;;;;;20.30;99.90;;;;;;5065083;28;19980;-68
2023/06/11 06:44:47;;;;;;;;;;;20.40;99.90;;;;;;5065999;28;19955;-69
2023/06/11 06:47:15;;;;;;;;;;;20.40;99.90;;;;;;5063416;28;19992;-69
2023/06/11 06:49:42;;;;;;;;;;;20.50;99.90;;;;;;5065129;28;19927;-69
2023/06/11 06:52:11;;;;;;;;;;;20.60;99.90;;;;;;5064931;28;19981;-69
2023/06/11 06:54:39;;;;;;;;;;;20.70;99.90;;;;;;5063935;28;19927;-69
2023/06/11 06:57:07;;;;;;;;;;;20.70;99.90;;;;;;5065680;28;19959;-70
2023/06/11 06:59:33;;;;;;;;;;;20.80;99.90;;;;;;5062479;28;20119;-69
2023/06/11 07:02:00;;;;;;;;;;;20.90;99.90;;;;;;5065101;28;19927;-70
2023/06/11 07:04:27;;;;;;;;;;;20.90;99.90;;;;;;5065690;28;19928;-69
2023/06/11 07:06:53;;;;;;;;;;;21.10;99.90;;;;;;5065257;28;20161;-70
2023/06/11 07:09:20;;;;;;;;;;;21.10;99.90;;;;;;5065395;28;19988;-69
2023/06/11 07:11:48;;;;;;;;;;;21.20;99.90;;;;;;5064621;28;20069;-69
2023/06/11 07:14:15;;;;;;;;;;;21.30;99.90;;;;;;5065354;28;19952;-69
2023/06/11 07:16:41;;;;;;;;;;;21.40;99.90;;;;;;5065168;28;19988;-69
2023/06/11 07:19:08;;;;;;;;;;;21.40;99.90;;;;;;5064742;28;19993;-69
2023/06/11 07:21:36;;;;;;;;;;;21.40;99.90;;;;;;5060686;28;19956;-69
2023/06/11 07:24:04;;;;;;;;;;;21.50;99.90;;;;;;5064845;28;19920;-68
2023/06/11 07:26:31;;;;;;;;;;;21.50;99.90;;;;;;5065099;28;19921;-68
2023/06/11 07:28:59;;;;;;;;;;;21.60;99.90;;;;;;5064651;28;19948;-67
2023/06/11 07:31:25;;;;;;;;;;;21.70;99.90;;;;;;5063147;28;19988;-68
2023/06/11 07:33:52;;;;;;;;;;;21.80;99.90;;;;;;5064942;28;19928;-68
2023/06/11 07:36:19;;;;;;;;;;;21.90;99.90;;;;;;5064341;28;20171;-68
2023/06/11 07:38:46;;;;;;;;;;;22.00;99.90;;;;;;5064938;28;19925;-68
2023/06/11 07:41:13;;;;;;;;;;;22.00;99.90;;;;;;5064039;28;19975;-69
2023/06/11 07:43:40;;;;;;;;;;;22.00;99.90;;;;;;5064546;28;19920;-67
2023/06/11 07:46:08;;;;;;;;;;;22.10;99.90;;;;;;5044808;28;19952;-71
2023/06/11 07:48:35;;;;;;;;;;;22.20;99.90;;;;;;5064722;28;19996;-69
2023/06/11 07:51:02;;;;;;;;;;;22.20;99.90;;;;;;5063483;28;19921;-68
2023/06/11 07:53:29;;;;;;;;;;;22.30;99.90;;;;;;5064297;28;19949;-68
2023/06/11 07:55:56;;;;;;;;;;;22.40;99.90;;;;;;5064086;28;19927;-69
2023/06/11 07:58:23;;;;;;;;;;;22.50;99.90;;;;;;5064204;28;19928;-69
2023/06/11 08:00:51;;;;;;;;;;;22.50;99.90;;;;;;5064510;28;19988;-69
2023/06/11 08:03:19;;;;;;;;;;;22.60;99.90;;;;;;5063846;28;19956;-68
2023/06/11 08:05:45;;;;;;;;;;;22.60;99.90;;;;;;5064185;28;20112;-69
2023/06/11 08:08:12;;;;;;;;;;;22.60;99.90;;;;;;5063311;28;19920;-69
2023/06/11 08:10:38;;;;;;;;;;;22.70;99.90;;;;;;5063885;28;19944;-69
2023/06/11 08:13:05;;;;;;;;;;;22.80;99.90;;;;;;5063226;28;19967;-69
2023/06/11 08:15:32;;;;;;;;;;;22.90;99.90;;;;;;5063441;28;19952;-68
2023/06/11 08:17:59;;;;;;;;;;;22.90;99.90;;;;;;5064070;28;19924;-68
2023/06/11 08:20:28;;;;;;;;;;;23.00;99.90;;;;;;5061768;28;19963;-69
2023/06/11 08:22:54;;;;;;;;;;;23.00;99.90;;;;;;5062737;28;19921;-70
2023/06/11 08:25:21;;;;;;;;;;;23.00;99.90;;;;;;5063776;28;20120;-67
2023/06/11 08:27:48;;;;;;;;;;;23.00;99.90;;;;;;5063498;28;20233;-69
2023/06/11 08:30:14;;;;;;;;;;;23.20;99.90;;;;;;5063665;28;19984;-69
2023/06/11 08:32:41;;;;;;;;;;;23.30;99.90;;;;;;5063389;28;19921;-69
2023/06/11 08:35:08;;;;;;;;;;;23.40;99.90;;;;;;5063673;28;19963;-70
2023/06/11 08:37:37;;;;;;;;;;;23.40;99.90;;;;;;5061217;28;20167;-69
2023/06/11 08:40:05;;;;;;;;;;;23.40;99.90;;;;;;5063447;28;19984;-69
2023/06/11 08:42:31;;;;;;;;;;;23.40;99.90;;;;;;5062988;28;19921;-68
2023/06/11 08:44:58;;;;;;;;;;;23.40;99.90;;;;;;5063457;28;19984;-69
2023/06/11 08:47:26;;;;;;;;;;;23.50;99.90;;;;;;5063705;28;19979;-69
2023/06/11 08:49:55;;;;;;;;;;;23.60;99.90;;;;;;5063085;28;20277;-69
2023/06/11 08:52:23;;;;;;;;;;;23.60;99.90;;;;;;5062582;28;19927;-69
2023/06/11 08:54:51;;;;;;;;;;;23.60;99.90;;;;;;5063474;28;19921;-68
2023/06/11 08:57:18;;;;;;;;;;;23.60;99.90;;;;;;5063402;28;19992;-69
2023/06/11 08:59:45;;;;;;;;;;;23.70;99.90;;;;;;5043549;28;19956;-69
2023/06/11 09:02:11;;;;;;;;;;;23.80;99.90;;;;;;5042700;28;19943;-69
2023/06/11 09:04:41;;;;;;;;;;;23.80;99.90;;;;;;5054887;28;19976;-69
2023/06/11 09:07:08;;;;;;;;;;;23.80;99.90;;;;;;5062851;28;19964;-70
2023/06/11 09:09:36;;;;;;;;;;;23.90;99.90;;;;;;5060597;28;19921;-70
2023/06/11 09:12:07;;;;;;;;;;;24.00;99.90;;;;;;5060681;28;19929;-69
2023/06/11 09:14:34;;;;;;;;;;;24.10;99.90;;;;;;5063202;28;20000;-70
2023/06/11 09:17:00;;;;;;;;;;;24.20;99.90;;;;;;5062623;28;19955;-70
2023/06/11 09:19:27;;;;;;;;;;;24.30;99.90;;;;;;5062608;28;19948;-70
2023/06/11 09:21:54;;;;;;;;;;;24.40;99.90;;;;;;5062070;28;19928;-70
2023/06/11 09:24:21;;;;;;;;;;;24.40;99.90;;;;;;5062902;28;19983;-69
2023/06/11 09:26:52;;;;;;;;;;;24.40;99.90;;;;;;5062364;28;19995;-69
2023/06/11 09:29:20;;;;;;;;;;;24.50;99.90;;;;;;5048580;28;19992;-70
2023/06/11 09:31:47;;;;;;;;;;;24.50;99.90;;;;;;5066240;28;19940;-69
2023/06/11 09:34:21;;;;;;;;;;;24.50;99.90;;;;;;5067023;28;19948;-69
2023/06/11 09:36:48;;;;;;;;;;;24.50;99.90;;;;;;5066888;28;19966;-70
2023/06/11 09:39:16;;;;;;;;;;;24.60;99.00;;;;;;5065401;28;19988;-68
2023/06/11 09:41:48;;;;;;;;;;;24.60;99.50;;;;;;5063093;28;19920;-69
2023/06/11 09:44:16;;;;;;;;;;;24.70;99.40;;;;;;5066545;28;19978;-69
2023/06/11 09:46:44;;;;;;;;;;;24.70;99.20;;;;;;5066858;28;19952;-70
2023/06/11 09:49:12;;;;;;;;;;;24.70;98.90;;;;;;5065626;28;20267;-68
2023/06/11 09:51:39;;;;;;;;;;;24.70;99.90;;;;;;5058419;28;20301;-70
2023/06/11 09:54:07;;;;;;;;;;;24.80;98.40;;;;;;5066876;28;19984;-69
2023/06/11 09:56:35;;;;;;;;;;;24.90;97.90;;;;;;5066657;28;19924;-69
2023/06/11 09:59:02;;;;;;;;;;;25.00;98.10;;;;;;5066736;28;19935;-69
2023/06/11 10:01:30;;;;;;;;;;;25.10;95.30;;;;;;5066128;28;20000;-70
2023/06/11 10:03:58;;;;;;;;;;;25.10;94.80;;;;;;5066545;28;19975;-69
2023/06/11 10:06:32;;;;;;;;;;;25.20;94.90;;;;;;5066633;28;19936;-69
2023/06/11 10:09:03;;;;;;;;;;;25.30;94.20;;;;;;5063702;28;20212;-69
2023/06/11 10:11:38;;;;;;;;;;;25.30;93.20;;;;;;5065789;28;19931;-69
2023/06/11 10:14:05;;;;;;;;;;;25.30;93.00;;;;;;5065993;28;19921;-70
2023/06/11 10:16:32;;;;;;;;;;;25.30;92.10;;;;;;5066338;28;20188;-69
2023/06/11 10:19:10;;;;;;;;;;;25.40;91.50;;;;;;5066535;28;19928;-69
2023/06/11 10:21:40;;;;;;;;;;;25.40;91.60;;;;;;5063194;28;20238;-69
2023/06/11 10:24:07;;;;;;;;;;;25.40;91.90;;;;;;5066126;28;20097;-69
2023/06/11 10:26:35;;;;;;;;;;;25.40;91.30;;;;;;5065797;28;19952;-69
2023/06/11 10:29:02;;;;;;;;;;;25.50;91.90;;;;;;5066074;28;19920;-70
2023/06/11 10:31:29;;;;;;;;;;;25.50;92.00;;;;;;5065283;28;19936;-69
2023/06/11 10:34:01;;;;;;;;;;;25.60;92.30;;;;;;5065972;28;20124;-70
2023/06/11 10:36:33;;;;;;;;;;;25.70;91.90;;;;;;5065991;28;19927;-69
2023/06/11 10:39:04;;;;;;;;;;;25.70;91.00;;;;;;5065768;28;19921;-69
2023/06/11 10:41:31;;;;;;;;;;;25.80;92.50;;;;;;5065288;28;20213;-69
2023/06/11 10:43:58;;;;;;;;;;;25.80;93.30;;;;;;5065877;28;19980;-71
2023/06/11 10:46:24;;;;;;;;;;;26.00;93.40;;;;;;5065226;28;19925;-69
2023/06/11 10:48:51;;;;;;;;;;;26.10;93.20;;;;;;5064792;28;19925;-70
2023/06/11 10:51:18;;;;;;;;;;;26.20;91.30;;;;;;5064760;28;19921;-70
2023/06/11 10:53:54;;;;;;;;;;;26.20;90.20;;;;;;5066078;28;20180;-70
2023/06/11 10:56:21;;;;;;;;;;;26.30;89.60;;;;;;5065769;28;19983;-70
2023/06/11 10:58:49;;;;;;;;;;;26.20;90.10;;;;;;5065944;28;19925;-69
2023/06/11 11:01:18;;;;;;;;;;;26.30;88.90;;;;;;5064929;28;19955;-70
2023/06/11 11:03:45;;;;;;;;;;;26.30;85.80;;;;;;5065415;28;19921;-69
2023/06/11 11:06:28;;;;;;;;;;;26.30;87.00;;;;;;5063068;28;19960;-71
2023/06/11 11:08:56;;;;;;;;;;;26.40;86.60;;;;;;5065114;28;19921;-70
2023/06/11 11:11:23;;;;;;;;;;;26.50;89.10;;;;;;5064186;28;20208;-70
2023/06/11 11:13:50;;;;;;;;;;;26.60;88.40;;;;;;5065362;28;19931;-71
2023/06/11 11:16:18;;;;;;;;;;;26.70;85.90;;;;;;5065383;28;19921;-71
2023/06/11 11:18:44;;;;;;;;;;;26.50;86.30;;;;;;5046174;28;19980;-70
2023/06/11 11:21:11;;;;;;;;;;;26.60;90.00;;;;;;5062973;28;19959;-70
2023/06/11 11:23:38;;;;;;;;;;;26.70;86.00;;;;;;5065463;28;19984;-71
2023/06/11 11:26:06;;;;;;;;;;;26.90;87.70;;;;;;5064692;28;19984;-71
2023/06/11 11:28:34;;;;;;;;;;;27.00;85.90;;;;;;5065213;28;19921;-73
2023/06/11 11:31:01;;;;;;;;;;;27.10;84.70;;;;;;5064693;28;19964;-71
2023/06/11 11:33:28;;;;;;;;;;;27.20;84.10;;;;;;5064664;28;20175;-71
2023/06/11 11:35:54;;;;;;;;;;;27.20;85.90;;;;;;5064311;28;19920;-70
2023/06/11 11:38:21;;;;;;;;;;;27.30;86.00;;;;;;5064993;28;19983;-72
2023/06/11 11:40:54;;;;;;;;;;;27.40;85.20;;;;;;5064320;28;19921;-70
2023/06/11 11:43:22;;;;;;;;;;;27.60;85.80;;;;;;5064102;28;19989;-69
2023/06/11 11:45:49;;;;;;;;;;;27.80;85.00;;;;;;5057191;28;19920;-69
2023/06/11 11:48:16;;;;;;;;;;;28.10;84.20;;;;;;5064858;28;20003;-70
2023/06/11 11:50:44;;;;;;;;;;;28.10;85.90;;;;;;5063949;28;19928;-70
2023/06/11 11:53:14;;;;;;;;;;;28.20;82.80;;;;;;5063822;28;20208;-69
2023/06/11 11:55:42;;;;;;;;;;;28.20;84.00;;;;;;5064530;28;19920;-69
2023/06/11 11:58:09;;;;;;;;;;;28.20;83.70;;;;;;5060673;28;19991;-70
2023/06/11 12:00:38;;;;;;;;;;;28.30;84.40;;;;;;5062125;28;19927;-69
2023/06/11 12:03:09;;;;;;;;;;;28.30;85.40;;;;;;5063678;28;19983;-69
2023/06/11 12:05:35;;;;;;;;;;;28.50;84.80;;;;;;5064267;28;19952;-69
2023/06/11 12:08:02;;;;;;;;;;;28.50;83.80;;;;;;5041668;28;19921;-69
2023/06/11 12:10:29;;;;;;;;;;;28.40;85.50;;;;;;5043606;28;19937;-68
2023/06/11 12:13:02;;;;;;;;;;;28.50;84.30;;;;;;5052825;28;19978;-69
2023/06/11 12:15:29;;;;;;;;;;;28.30;81.20;;;;;;5058350;28;19952;-69
2023/06/11 12:17:56;;;;;;;;;;;28.10;83.70;;;;;;5064053;28;19980;-68
2023/06/11 12:20:23;;;;;;;;;;;28.20;82.20;;;;;;5064044;28;19921;-67
2023/06/11 12:22:51;;;;;;;;;;;28.30;82.50;;;;;;5063544;28;19921;-70
2023/06/11 12:25:18;;;;;;;;;;;28.40;83.40;;;;;;5063938;28;19974;-69
2023/06/11 12:27:45;;;;;;;;;;;28.50;82.50;;;;;;5063629;28;19920;-70
2023/06/11 12:30:12;;;;;;;;;;;28.60;80.30;;;;;;5062848;28;19935;-70
2023/06/11 12:32:39;;;;;;;;;;;28.60;81.80;;;;;;5062639;28;20247;-70
2023/06/11 12:35:07;;;;;;;;;;;28.50;80.10;;;;;;5062079;28;20184;-71
2023/06/11 12:37:36;;;;;;;;;;;28.60;81.40;;;;;;5041387;28;19921;-69
2023/06/11 12:40:05;;;;;;;;;;;28.70;79.70;;;;;;5041883;28;20116;-69
2023/06/11 12:42:32;;;;;;;;;;;28.60;78.80;;;;;;5059747;28;20104;-69
2023/06/11 12:44:59;;;;;;;;;;;28.70;80.20;;;;;;5063416;28;19929;-69
2023/06/11 12:56:36;;;;;;;;;;;29.10;77.90;;;;;;5048526;28;19915;-71
2023/06/11 12:59:02;;;;;;;;;;;29.40;78.40;;;;;;5063137;28;19984;-71
2023/06/11 13:01:29;;;;;;;;;;;29.70;76.80;;;;;;5062564;28;19960;-71
2023/06/11 13:03:56;;;;;;;;;;;29.40;76.00;;;;;;5063220;28;19979;-71
2023/06/11 13:06:24;;;;;;;;;;;29.30;75.70;;;;;;5060860;28;19988;-70
2023/06/11 13:08:52;;;;;;;;;;;29.30;77.40;;;;;;5063276;28;19920;-69
2023/06/11 13:11:18;;;;;;;;;;;29.30;76.40;;;;;;5062422;28;19920;-71
2023/06/11 13:13:47;;;;;;;;;;;29.50;75.80;;;;;;5062993;28;20247;-69
2023/06/11 13:16:14;;;;;;;;;;;29.80;76.90;;;;;;5062976;28;19982;-71
2023/06/11 13:18:41;;;;;;;;;;;30.10;76.80;;;;;;5060369;28;19920;-71
2023/06/11 13:21:07;;;;;;;;;;;30.40;78.20;;;;;;5062332;28;19960;-69
2023/06/11 13:23:34;;;;;;;;;;;30.80;75.10;;;;;;5062600;28;19951;-71
2023/06/11 13:26:01;;;;;;;;;;;31.00;76.00;;;;;;5063018;28;19928;-71
2023/06/11 13:28:28;;;;;;;;;;;31.20;76.60;;;;;;5063079;28;19921;-71
2023/06/11 13:30:58;;;;;;;;;;;30.80;73.70;;;;;;5063365;28;19955;-71
2023/06/11 13:33:25;;;;;;;;;;;30.50;74.90;;;;;;5062865;28;19995;-71
2023/06/11 13:35:51;;;;;;;;;;;30.30;75.10;;;;;;5062804;28;19980;-71
2023/06/11 13:38:18;;;;;;;;;;;30.10;77.20;;;;;;5063278;28;19920;-70
2023/06/11 13:40:45;;;;;;;;;;;30.10;77.60;;;;;;5063112;28;19921;-70
2023/06/11 13:43:11;;;;;;;;;;;30.00;74.10;;;;;;5062441;28;20187;-70
2023/06/11 13:45:38;;;;;;;;;;;29.80;74.40;;;;;;5062629;28;19952;-70
2023/06/11 13:48:12;;;;;;;;;;;29.80;74.20;;;;;;5063118;28;19927;-71
2023/06/11 13:50:40;;;;;;;;;;;29.70;75.50;;;;;;5062853;28;19956;-70
2023/06/11 13:53:06;;;;;;;;;;;29.70;74.80;;;;;;5062056;28;19936;-69
2023/06/11 13:55:33;;;;;;;;;;;29.80;76.50;;;;;;5062931;28;19921;-71
2023/06/11 13:57:59;;;;;;;;;;;30.10;75.20;;;;;;5062974;28;19989;-71
2023/06/11 14:00:27;;;;;;;;;;;30.30;74.50;;;;;;5062986;28;19925;-71
2023/06/11 14:02:53;;;;;;;;;;;30.30;74.40;;;;;;5062316;28;19962;-70
2023/06/11 14:05:21;;;;;;;;;;;30.30;74.70;;;;;;5061860;28;20256;-70
2023/06/11 14:07:48;;;;;;;;;;;30.30;74.60;;;;;;5061140;28;19920;-70
2023/06/11 14:10:15;;;;;;;;;;;30.40;74.20;;;;;;5062629;28;19925;-69
2023/06/11 14:12:41;;;;;;;;;;;30.40;73.20;;;;;;5061996;28;20070;-70
2023/06/11 14:15:09;;;;;;;;;;;30.40;72.90;;;;;;5065108;28;19988;-71
2023/06/11 14:17:39;;;;;;;;;;;30.30;74.40;;;;;;5066405;28;19920;-70
2023/06/11 14:20:06;;;;;;;;;;;30.60;74.40;;;;;;5066524;28;20227;-70
2023/06/11 14:22:34;;;;;;;;;;;30.60;72.50;;;;;;5065569;28;19921;-70
2023/06/11 14:25:01;;;;;;;;;;;30.50;70.70;;;;;;5046486;28;19944;-71
2023/06/11 14:27:27;;;;;;;;;;;30.30;72.60;;;;;;5052512;28;19927;-71